Time;durP1;ratioP1;P1;durP2;ratioP2;P2;SDS_P1;SDS_P2;PMS_P1;PMS_P2;Temp;Humidity;BMP_temperature;BMP_pressure;BME280_temperature;BME280_humidity;BME280_pressure;Samples;Min_cycle;Max_cycle;Signal;HPM_P1;HPM_P2
2023/04/03 00:01:15;;;;;;;7.15;5.35;;;2.40;99.90;;;;;;5100234;28;20020;-79
2023/04/03 00:03:41;;;;;;;6.45;4.95;;;2.30;99.90;;;;;;5094731;28;20036;-79
2023/04/03 00:06:08;;;;;;;9.13;5.40;;;2.30;99.90;;;;;;5094653;28;20032;-78
2023/04/03 00:08:35;;;;;;;6.68;5.18;;;2.30;99.90;;;;;;5095168;28;20020;-76
2023/04/03 00:11:01;;;;;;;8.20;5.82;;;2.30;99.90;;;;;;5085603;28;20079;-78
2023/04/03 00:13:27;;;;;;;8.00;5.35;;;2.30;99.90;;;;;;5094590;28;20104;-76
2023/04/03 00:15:53;;;;;;;8.38;5.88;;;2.30;99.90;;;;;;5093812;28;20024;-77
2023/04/03 00:18:19;;;;;;;7.88;5.15;;;2.30;99.90;;;;;;5095081;28;20016;-76
2023/04/03 00:20:45;;;;;;;6.57;5.30;;;2.40;99.90;;;;;;5092925;28;20063;-76
2023/04/03 00:23:11;;;;;;;7.85;4.70;;;2.40;99.90;;;;;;5113095;28;20100;-78
2023/04/03 00:25:37;;;;;;;6.38;4.93;;;2.40;99.90;;;;;;5115951;28;20048;-77
2023/04/03 00:28:04;;;;;;;9.63;5.53;;;2.40;99.90;;;;;;5100704;28;20051;-79
2023/04/03 00:30:30;;;;;;;8.93;5.10;;;2.40;99.90;;;;;;5098585;28;20032;-76
2023/04/03 00:32:56;;;;;;;6.45;4.85;;;2.40;99.90;;;;;;5099417;28;20020;-78
2023/04/03 00:35:22;;;;;;;6.20;4.93;;;2.40;99.90;;;;;;5101640;28;20078;-78
2023/04/03 00:37:50;;;;;;;7.35;5.07;;;2.40;99.90;;;;;;5103678;28;20079;-79
2023/04/03 00:40:16;;;;;;;6.18;4.68;;;2.40;99.90;;;;;;5103346;28;20071;-79
2023/04/03 00:42:43;;;;;;;5.80;4.40;;;2.40;99.90;;;;;;5093107;28;20036;-79
2023/04/03 00:45:18;;;;;;;7.20;4.88;;;2.40;99.90;;;;;;5082469;28;20108;-79
2023/04/03 00:47:44;;;;;;;6.70;4.47;;;2.40;99.90;;;;;;5084021;28;20027;-78
2023/04/03 00:50:10;;;;;;;5.85;3.75;;;2.40;99.90;;;;;;5082970;28;20032;-80
2023/04/03 00:52:37;;;;;;;6.35;4.78;;;2.40;99.90;;;;;;5080598;28;20091;-78
2023/04/03 00:55:07;;;;;;;7.25;5.13;;;2.50;99.90;;;;;;5081012;28;20017;-79
2023/04/03 00:57:33;;;;;;;6.65;4.75;;;2.50;99.90;;;;;;5083348;28;20436;-77
2023/04/03 01:00:09;;;;;;;6.55;3.80;;;2.50;99.90;;;;;;5114772;28;20050;-78
2023/04/03 01:02:36;;;;;;;5.60;4.25;;;2.50;99.90;;;;;;5101853;28;20078;-78
2023/04/03 01:05:02;;;;;;;6.93;4.50;;;2.50;99.90;;;;;;5100758;28;20030;-79
2023/04/03 01:07:30;;;;;;;5.63;4.15;;;2.50;99.90;;;;;;5103691;28;20020;-79
2023/04/03 01:09:59;;;;;;;5.57;4.05;;;2.50;99.90;;;;;;5102677;28;20035;-79
2023/04/03 01:12:32;;;;;;;5.40;3.70;;;2.60;99.90;;;;;;5111530;28;20039;-78
2023/04/03 01:15:11;;;;;;;4.95;3.65;;;2.60;99.90;;;;;;5114519;28;20020;-79
2023/04/03 01:17:40;;;;;;;7.50;4.07;;;2.60;99.90;;;;;;5092183;28;20020;-78
2023/04/03 01:20:14;;;;;;;5.82;3.97;;;2.60;99.90;;;;;;5087054;28;20033;-78
2023/04/03 01:22:55;;;;;;;7.18;4.43;;;2.60;99.90;;;;;;5090509;28;20064;-78
2023/04/03 01:25:21;;;;;;;5.55;4.45;;;2.50;99.90;;;;;;5095819;28;20017;-75
2023/04/03 01:27:47;;;;;;;6.00;3.75;;;2.60;99.90;;;;;;5108048;28;20073;-77
2023/04/03 01:30:16;;;;;;;8.23;5.00;;;2.60;99.90;;;;;;5126637;28;20026;-77
2023/04/03 01:32:42;;;;;;;5.25;4.30;;;2.60;99.90;;;;;;5115259;28;20075;-79
2023/04/03 01:35:09;;;;;;;6.20;4.13;;;2.50;99.90;;;;;;5102301;28;20120;-79
2023/04/03 01:37:35;;;;;;;6.60;4.13;;;2.50;99.90;;;;;;5102116;28;20028;-79
2023/04/03 01:40:01;;;;;;;9.27;4.10;;;2.50;99.90;;;;;;5101858;28;20031;-79
2023/04/03 01:42:26;;;;;;;7.40;4.97;;;2.50;99.90;;;;;;5088464;28;20032;-78
2023/04/03 01:44:52;;;;;;;4.93;4.13;;;2.50;99.90;;;;;;5079028;28;20024;-78
2023/04/03 01:47:18;;;;;;;6.03;3.90;;;2.60;99.90;;;;;;5081655;28;20033;-81
2023/04/03 01:49:43;;;;;;;5.70;4.10;;;2.50;99.90;;;;;;5091307;28;20039;-79
2023/04/03 01:52:09;;;;;;;6.82;4.80;;;2.50;99.90;;;;;;5101856;28;20020;-78
2023/04/03 01:54:34;;;;;;;7.47;4.80;;;2.50;99.90;;;;;;5099873;28;20449;-78
2023/04/03 01:57:00;;;;;;;5.95;4.70;;;2.40;99.90;;;;;;5097841;28;20016;-80
2023/04/03 01:59:26;;;;;;;4.68;3.90;;;2.50;99.90;;;;;;5103348;28;20020;-80
2023/04/03 02:01:52;;;;;;;5.95;4.32;;;2.50;99.90;;;;;;5101876;28;20814;-78
2023/04/03 02:04:17;;;;;;;6.78;4.70;;;2.40;99.90;;;;;;5099665;28;20024;-79
2023/04/03 02:06:43;;;;;;;7.13;4.38;;;2.50;99.90;;;;;;5102904;28;20017;-79
2023/04/03 02:09:09;;;;;;;7.45;4.32;;;2.40;99.90;;;;;;5089817;28;20089;-78
2023/04/03 02:11:34;;;;;;;6.43;3.97;;;2.50;99.90;;;;;;5091031;28;20020;-77
2023/04/03 02:14:00;;;;;;;5.25;3.72;;;2.50;99.90;;;;;;5090681;28;20131;-79
2023/04/03 02:16:25;;;;;;;4.80;3.25;;;2.50;99.90;;;;;;5089009;28;20017;-77
2023/04/03 02:18:51;;;;;;;7.15;3.83;;;2.50;99.90;;;;;;5093159;28;20021;-76
2023/04/03 02:21:17;;;;;;;5.97;4.15;;;2.50;99.90;;;;;;5089965;28;20107;-78
2023/04/03 02:23:43;;;;;;;4.82;3.60;;;2.50;99.90;;;;;;5092365;28;20059;-78
2023/04/03 02:26:11;;;;;;;4.50;3.20;;;2.50;99.90;;;;;;5099827;28;20055;-78
2023/04/03 02:28:37;;;;;;;9.00;3.80;;;2.50;99.90;;;;;;5106475;28;20032;-78
2023/04/03 02:31:06;;;;;;;6.07;3.55;;;2.50;99.90;;;;;;5121882;28;20038;-78
2023/04/03 02:33:32;;;;;;;5.47;3.53;;;2.50;99.90;;;;;;5123973;27;20154;-78
2023/04/03 02:35:58;;;;;;;4.22;3.13;;;2.50;99.90;;;;;;5124021;28;20048;-78
2023/04/03 02:38:25;;;;;;;3.17;2.72;;;2.50;99.90;;;;;;5119291;28;20020;-79
2023/04/03 02:40:51;;;;;;;2.92;2.55;;;2.60;99.90;;;;;;5094085;28;20097;-78
2023/04/03 02:43:17;;;;;;;5.75;2.97;;;2.60;99.90;;;;;;5079035;28;20048;-79
2023/04/03 02:45:43;;;;;;;4.13;3.00;;;2.60;99.90;;;;;;5077319;28;20517;-77
2023/04/03 02:48:11;;;;;;;3.20;2.90;;;2.50;99.90;;;;;;5079655;28;20021;-78
2023/04/03 02:50:37;;;;;;;3.63;2.95;;;2.50;99.90;;;;;;5080014;28;20031;-78
2023/04/03 02:53:03;;;;;;;5.43;2.97;;;2.50;99.90;;;;;;5079682;28;20493;-78
2023/04/03 02:55:28;;;;;;;3.72;2.70;;;2.50;99.90;;;;;;5079410;28;20043;-78
2023/04/03 02:57:54;;;;;;;3.65;2.80;;;2.60;99.90;;;;;;5099766;28;20031;-77
2023/04/03 03:00:20;;;;;;;5.50;2.92;;;2.60;99.90;;;;;;5109734;28;20026;-77
2023/04/03 03:02:46;;;;;;;2.50;2.28;;;2.60;99.90;;;;;;5115660;28;20037;-77
2023/04/03 03:05:11;;;;;;;3.25;2.25;;;2.60;99.90;;;;;;5117802;28;20073;-78
2023/04/03 03:07:37;;;;;;;2.90;2.15;;;2.60;99.90;;;;;;5118010;28;20023;-79
2023/04/03 03:10:03;;;;;;;3.60;2.03;;;2.60;99.90;;;;;;5119418;28;20047;-79
2023/04/03 03:12:29;;;;;;;3.75;2.00;;;2.70;99.90;;;;;;5100302;28;20020;-78
2023/04/03 03:14:55;;;;;;;4.88;2.40;;;2.70;99.90;;;;;;5096574;28;20024;-77
2023/04/03 03:17:20;;;;;;;3.20;2.00;;;2.60;99.90;;;;;;5099586;28;20017;-79
2023/04/03 03:19:46;;;;;;;6.70;2.50;;;2.70;99.90;;;;;;5100096;28;20086;-78
2023/04/03 03:22:12;;;;;;;4.00;2.80;;;2.60;99.90;;;;;;5109175;28;20023;-77
2023/04/03 03:24:37;;;;;;;3.03;2.65;;;2.60;99.90;;;;;;5110635;28;20024;-79
2023/04/03 03:27:03;;;;;;;3.90;2.42;;;2.60;99.90;;;;;;5104708;28;20020;-76
2023/04/03 03:29:29;;;;;;;3.30;2.20;;;2.60;99.90;;;;;;5094538;28;20037;-76
2023/04/03 03:31:54;;;;;;;3.33;2.47;;;2.60;99.90;;;;;;5094758;28;20040;-76
2023/04/03 03:34:20;;;;;;;2.40;2.17;;;2.60;99.90;;;;;;5093327;28;20032;-76
2023/04/03 03:36:46;;;;;;;3.33;2.38;;;2.60;99.90;;;;;;5093726;28;20225;-76
2023/04/03 03:39:15;;;;;;;2.20;1.73;;;2.60;99.90;;;;;;5094040;28;20012;-77
2023/04/03 03:41:40;;;;;;;2.25;2.00;;;2.60;99.90;;;;;;5091618;28;20044;-78
2023/04/03 03:44:06;;;;;;;4.35;2.03;;;2.60;99.90;;;;;;5081686;28;20036;-77
2023/04/03 03:46:32;;;;;;;1.90;1.73;;;2.60;99.90;;;;;;5095476;28;20032;-77
2023/04/03 03:48:58;;;;;;;2.35;1.90;;;2.60;99.90;;;;;;5079210;28;20031;-77
2023/04/03 03:51:23;;;;;;;3.30;1.75;;;2.60;99.90;;;;;;5079895;28;20024;-78
2023/04/03 03:53:49;;;;;;;5.63;2.38;;;2.60;99.90;;;;;;5097788;28;20107;-78
2023/04/03 03:56:15;;;;;;;3.08;2.15;;;2.70;99.90;;;;;;5097834;28;20077;-78
2023/04/03 03:58:41;;;;;;;1.88;1.55;;;2.70;99.90;;;;;;5103103;28;20024;-77
2023/04/03 04:01:07;;;;;;;3.38;2.28;;;2.70;99.90;;;;;;5110369;28;20091;-76
2023/04/03 04:03:33;;;;;;;4.57;2.42;;;2.70;99.90;;;;;;5097371;28;20123;-77
2023/04/03 04:05:59;;;;;;;2.85;2.58;;;2.70;99.90;;;;;;5098264;28;20089;-77
2023/04/03 04:08:26;;;;;;;3.63;2.38;;;2.70;99.90;;;;;;5102187;28;20020;-77
2023/04/03 04:10:52;;;;;;;5.82;2.75;;;2.80;99.90;;;;;;5100098;28;20034;-77
2023/04/03 04:13:18;;;;;;;2.53;1.75;;;2.70;99.90;;;;;;5099274;28;20036;-76
2023/04/03 04:15:44;;;;;;;3.30;2.70;;;2.70;99.90;;;;;;5111806;28;20028;-77
2023/04/03 04:18:09;;;;;;;3.80;2.53;;;2.70;99.90;;;;;;5099936;28;20146;-77
2023/04/03 04:20:35;;;;;;;2.33;2.13;;;2.70;99.90;;;;;;5093170;28;20108;-77
2023/04/03 04:23:01;;;;;;;3.20;2.20;;;2.70;99.90;;;;;;5087081;28;20032;-78
2023/04/03 04:25:27;;;;;;;3.78;2.22;;;2.70;99.90;;;;;;5082719;28;20028;-78
2023/04/03 04:27:52;;;;;;;2.67;2.05;;;2.70;99.90;;;;;;5101837;28;20024;-77
2023/04/03 04:30:18;;;;;;;1.75;1.52;;;2.70;99.90;;;;;;5120722;28;20019;-76
2023/04/03 04:32:44;;;;;;;4.05;1.95;;;2.70;99.90;;;;;;5120760;28;20019;-77
2023/04/03 04:35:10;;;;;;;3.35;2.10;;;2.70;99.90;;;;;;5082359;28;20474;-77
2023/04/03 04:37:35;;;;;;;2.90;2.13;;;2.70;99.90;;;;;;5080968;28;20020;-78
2023/04/03 04:40:01;;;;;;;2.67;1.58;;;2.70;99.90;;;;;;5081504;28;20504;-79
2023/04/03 04:42:27;;;;;;;1.90;1.58;;;2.70;99.90;;;;;;5080485;28;20025;-78
2023/04/03 04:44:53;;;;;;;5.22;2.10;;;2.70;99.90;;;;;;5078944;28;20025;-77
2023/04/03 04:47:19;;;;;;;2.85;2.30;;;2.70;99.90;;;;;;5078916;28;20024;-78
2023/04/03 04:49:45;;;;;;;2.88;1.90;;;2.70;99.90;;;;;;5083433;28;20039;-77
2023/04/03 04:52:10;;;;;;;2.97;1.88;;;2.70;99.90;;;;;;5103900;28;20027;-78
2023/04/03 04:54:36;;;;;;;3.63;1.92;;;2.70;99.90;;;;;;5108728;28;20177;-78
2023/04/03 04:57:02;;;;;;;2.80;1.70;;;2.80;99.90;;;;;;5101127;28;20026;-78
2023/04/03 04:59:27;;;;;;;8.98;2.55;;;2.80;99.90;;;;;;5112053;28;20421;-78
2023/04/03 05:01:53;;;;;;;4.35;2.58;;;2.80;99.90;;;;;;5121108;28;20409;-77
2023/04/03 05:04:19;;;;;;;4.45;2.40;;;2.80;99.90;;;;;;5120598;28;20020;-78
2023/04/03 05:06:45;;;;;;;2.03;1.65;;;2.80;99.90;;;;;;5112473;28;20107;-78
2023/04/03 05:09:11;;;;;;;3.05;1.92;;;2.80;99.90;;;;;;5102001;28;20088;-79
2023/04/03 05:11:36;;;;;;;2.05;1.63;;;2.80;99.90;;;;;;5105589;28;20031;-80
2023/04/03 05:14:06;;;;;;;5.90;2.55;;;2.80;99.90;;;;;;5105209;28;20024;-80
2023/04/03 05:16:32;;;;;;;3.50;2.28;;;2.80;99.90;;;;;;5101177;28;20114;-78
2023/04/03 05:18:58;;;;;;;3.28;2.08;;;2.70;99.90;;;;;;5100447;28;20050;-78
2023/04/03 05:21:25;;;;;;;2.22;2.03;;;2.70;99.90;;;;;;5109212;28;20012;-77
2023/04/03 05:23:52;;;;;;;2.53;1.70;;;2.70;99.90;;;;;;5105211;28;20044;-78
2023/04/03 05:26:17;;;;;;;2.65;1.65;;;2.80;99.90;;;;;;5102279;28;20028;-79
2023/04/03 05:28:43;;;;;;;1.70;1.60;;;2.80;99.90;;;;;;5113277;28;20098;-79
2023/04/03 05:31:09;;;;;;;1.33;1.20;;;2.80;99.90;;;;;;5123784;28;20028;-77
2023/04/03 05:33:34;;;;;;;3.03;1.80;;;2.80;99.90;;;;;;5124007;28;20023;-79
2023/04/03 05:36:04;;;;;;;1.98;1.70;;;2.90;99.90;;;;;;5123534;28;20107;-78
2023/04/03 05:38:31;;;;;;;3.00;1.80;;;2.90;99.90;;;;;;5124264;28;20040;-79
2023/04/03 05:40:57;;;;;;;3.10;2.10;;;2.90;99.90;;;;;;5111428;28;20027;-78
2023/04/03 05:43:22;;;;;;;4.07;2.15;;;3.00;99.90;;;;;;5113674;28;20027;-78
2023/04/03 05:45:48;;;;;;;3.40;2.10;;;3.00;99.90;;;;;;5115207;28;20569;-79
2023/04/03 05:48:14;;;;;;;4.30;2.05;;;3.00;99.90;;;;;;5113275;28;20088;-78
2023/04/03 05:50:42;;;;;;;3.20;2.05;;;3.00;99.90;;;;;;5117646;28;20039;-78
2023/04/03 05:53:14;;;;;;;2.25;1.73;;;3.00;99.90;;;;;;5116625;28;20035;-79
2023/04/03 05:55:40;;;;;;;;;;;3.00;99.90;;;;;;5106873;28;20020;-79
2023/04/03 05:58:05;;;;;;;1.83;1.60;;;3.00;99.90;;;;;;5089874;28;20456;-78
2023/04/03 06:00:31;;;;;;;2.17;1.88;;;3.00;99.90;;;;;;5096959;28;20013;-78
2023/04/03 06:02:57;;;;;;;2.40;2.15;;;3.00;99.90;;;;;;5096317;28;20048;-77
2023/04/03 06:05:23;;;;;;;3.25;1.98;;;3.10;99.90;;;;;;5091044;28;20052;-78
2023/04/03 06:07:49;;;;;;;2.55;1.83;;;3.10;99.90;;;;;;5080785;28;20028;-79
2023/04/03 06:10:15;;;;;;;2.67;1.70;;;3.10;99.90;;;;;;5081354;28;20016;-78
2023/04/03 06:12:41;;;;;;;3.80;2.47;;;3.20;99.90;;;;;;5084654;28;20076;-78
2023/04/03 06:15:09;;;;;;;2.28;2.08;;;3.20;99.90;;;;;;5103598;28;20012;-80
2023/04/03 06:17:37;;;;;;;3.53;1.90;;;3.30;99.90;;;;;;5108742;28;20020;-79
2023/04/03 06:20:03;;;;;;;2.17;1.65;;;3.30;99.90;;;;;;5110317;28;20040;-79
2023/04/03 06:22:29;;;;;;;4.95;2.40;;;3.40;99.90;;;;;;5108757;28;20519;-79
2023/04/03 06:24:56;;;;;;;2.92;2.15;;;3.50;99.90;;;;;;5105813;28;20477;-78
2023/04/03 06:27:22;;;;;;;4.03;3.13;;;3.50;99.90;;;;;;5107628;28;20039;-77
2023/04/03 06:29:48;;;;;;;3.47;2.47;;;3.50;99.90;;;;;;5108597;28;20080;-79
2023/04/03 06:32:14;;;;;;;5.60;2.55;;;3.50;99.80;;;;;;5097081;28;20081;-76
2023/04/03 06:34:49;;;;;;;3.95;2.60;;;3.50;99.20;;;;;;5105343;28;20051;-77
2023/04/03 06:37:20;;;;;;;4.30;2.63;;;3.50;98.90;;;;;;5106026;28;20054;-77
2023/04/03 06:39:46;;;;;;;8.48;2.40;;;3.50;98.90;;;;;;5110942;28;20030;-78
2023/04/03 06:42:12;;;;;;;5.47;2.88;;;3.50;98.90;;;;;;5110579;28;20012;-77
2023/04/03 06:44:39;;;;;;;4.47;2.92;;;3.60;98.60;;;;;;5091054;28;20013;-78
2023/04/03 06:47:05;;;;;;;3.03;2.25;;;3.60;97.90;;;;;;5091850;28;20016;-78
2023/04/03 06:49:31;;;;;;;3.60;2.47;;;3.60;98.00;;;;;;5090952;28;20028;-77
2023/04/03 06:51:57;;;;;;;2.97;2.47;;;3.60;98.20;;;;;;5091409;28;20021;-79
2023/04/03 06:54:23;;;;;;;3.65;1.92;;;3.70;98.10;;;;;;5091412;28;20043;-78
2023/04/03 06:56:49;;;;;;;5.07;3.10;;;3.80;97.80;;;;;;5091583;28;20080;-78
2023/04/03 06:59:15;;;;;;;2.83;2.35;;;3.80;97.70;;;;;;5102229;28;20035;-77
2023/04/03 07:01:41;;;;;;;3.95;2.72;;;3.90;97.30;;;;;;5131556;28;20020;-78
2023/04/03 07:04:08;;;;;;;7.53;3.10;;;3.90;97.40;;;;;;5133439;28;20027;-78
2023/04/03 07:06:34;;;;;;;4.03;2.55;;;4.00;97.00;;;;;;5132293;28;20020;-78
2023/04/03 07:09:01;;;;;;;6.45;2.70;;;4.10;96.80;;;;;;5134692;28;20029;-78
2023/04/03 07:11:27;;;;;;;8.15;2.95;;;4.20;96.30;;;;;;5135613;28;20043;-78
2023/04/03 07:13:53;;;;;;;4.07;2.60;;;4.20;95.70;;;;;;5123236;28;20020;-79
2023/04/03 07:16:20;;;;;;;4.18;2.42;;;4.20;96.30;;;;;;5110408;28;20025;-79
2023/04/03 07:18:46;;;;;;;3.45;2.33;;;4.20;96.20;;;;;;5112291;28;20036;-77
2023/04/03 07:21:12;;;;;;;5.78;2.53;;;4.30;96.20;;;;;;5109918;28;20028;-78
2023/04/03 07:23:39;;;;;;;6.35;2.83;;;4.50;96.00;;;;;;5111211;28;20089;-78
2023/04/03 07:26:06;;;;;;;4.88;2.40;;;4.60;95.30;;;;;;5115977;28;20038;-77
2023/04/03 07:28:32;;;;;;;4.57;2.50;;;4.70;95.00;;;;;;5112440;28;20018;-78
2023/04/03 07:31:08;;;;;;;6.35;2.78;;;4.70;94.40;;;;;;5111430;28;20056;-77
2023/04/03 07:33:34;;;;;;;4.40;3.08;;;4.80;93.90;;;;;;5092362;28;20020;-78
2023/04/03 07:36:00;;;;;;;3.45;2.92;;;4.70;93.80;;;;;;5088812;28;20024;-78
2023/04/03 07:38:27;;;;;;;6.05;2.97;;;4.60;93.50;;;;;;5091832;28;20035;-79
2023/04/03 07:40:52;;;;;;;6.50;3.35;;;4.50;93.40;;;;;;5088250;28;20028;-78
2023/04/03 07:43:20;;;;;;;4.38;3.08;;;4.40;93.70;;;;;;5087730;28;20096;-78
2023/04/03 07:45:49;;;;;;;7.13;3.70;;;4.40;94.20;;;;;;5085744;28;20044;-78
2023/04/03 07:48:17;;;;;;;8.10;3.08;;;4.40;93.80;;;;;;5102154;28;20038;-77
2023/04/03 07:50:43;;;;;;;6.60;3.00;;;4.40;94.30;;;;;;5085387;28;20111;-77
2023/04/03 07:53:11;;;;;;;7.10;3.10;;;4.30;94.40;;;;;;5087831;28;20631;-77
2023/04/03 07:55:42;;;;;;;3.75;2.58;;;4.30;94.50;;;;;;5090316;28;20055;-78
2023/04/03 07:58:14;;;;;;;5.17;2.97;;;4.40;94.80;;;;;;5101572;28;20035;-78
2023/04/03 08:00:40;;;;;;;5.82;3.45;;;4.50;94.70;;;;;;5114562;28;20084;-78
2023/04/03 08:03:07;;;;;;;6.88;3.90;;;4.50;94.60;;;;;;5109769;28;20044;-77
2023/04/03 08:05:43;;;;;;;4.93;3.35;;;4.40;93.90;;;;;;5087055;28;20058;-80
2023/04/03 08:08:11;;;;;;;5.68;3.28;;;4.40;94.50;;;;;;5087118;28;20020;-77
2023/04/03 08:10:37;;;;;;;6.82;3.45;;;4.50;94.80;;;;;;5090816;28;20025;-78
2023/04/03 08:13:03;;;;;;;7.30;3.58;;;4.60;94.60;;;;;;5088184;28;20131;-78
2023/04/03 08:15:30;;;;;;;7.68;3.42;;;4.70;94.60;;;;;;5090693;28;20021;-77
2023/04/03 08:17:56;;;;;;;9.82;4.03;;;4.80;94.60;;;;;;5088583;28;20095;-78
2023/04/03 08:20:22;;;;;;;8.15;4.53;;;4.80;93.50;;;;;;5085725;28;20086;-77
2023/04/03 08:22:48;;;;;;;12.35;5.03;;;4.70;93.50;;;;;;5083633;28;20024;-77
2023/04/03 08:25:14;;;;;;;8.43;4.22;;;4.70;94.00;;;;;;5087532;28;20025;-78
2023/04/03 08:27:40;;;;;;;5.60;3.38;;;4.70;94.00;;;;;;5105205;28;20024;-77
2023/04/03 08:30:06;;;;;;;3.72;3.13;;;4.70;94.00;;;;;;5116373;28;20024;-78
2023/04/03 08:32:34;;;;;;;4.60;3.45;;;4.80;94.10;;;;;;5108600;28;20399;-79
2023/04/03 08:35:00;;;;;;;3.25;2.53;;;4.90;94.30;;;;;;5109680;28;20013;-77
2023/04/03 08:37:26;;;;;;;6.13;3.20;;;5.00;94.20;;;;;;5108783;28;20036;-78
2023/04/03 08:39:52;;;;;;;4.85;3.10;;;5.10;93.50;;;;;;5108697;28;20193;-77
2023/04/03 08:42:59;;;;;;;6.57;3.40;;;5.10;93.40;;;;;;5104519;28;20024;-77
2023/04/03 08:45:42;;;;;;;5.85;3.20;;;5.20;92.90;;;;;;5105615;28;20021;-77
2023/04/03 08:48:32;;;;;;;5.53;3.20;;;5.20;92.80;;;;;;5076889;23;20049;-76
2023/04/03 08:51:05;;;;;;;5.03;3.30;;;5.20;91.80;;;;;;5018198;28;20038;-77
2023/04/03 08:53:35;;;;;;;6.70;3.33;;;5.20;91.70;;;;;;5023456;28;20079;-80
2023/04/03 08:56:09;;;;;;;5.80;3.50;;;5.10;91.70;;;;;;5040756;28;20029;-79
2023/04/03 08:59:05;;;;;;;6.43;3.40;;;5.10;91.70;;;;;;5043927;28;20025;-78
2023/04/03 09:01:39;;;;;;;6.95;3.17;;;5.00;91.90;;;;;;5018315;28;20037;-78
2023/04/03 09:04:16;;;;;;;6.15;3.45;;;5.00;92.50;;;;;;5030930;28;20018;-78
2023/04/03 09:07:08;;;;;;;5.40;3.17;;;5.10;92.40;;;;;;5037034;28;20034;-78
2023/04/03 09:09:41;;;;;;;5.50;3.40;;;5.20;92.10;;;;;;5019358;28;20033;-77
2023/04/03 09:12:26;;;;;;;5.25;3.47;;;5.20;91.80;;;;;;5044140;28;20060;-77
2023/04/03 09:15:08;;;;;;;6.05;3.20;;;5.30;91.90;;;;;;5045200;28;20089;-80
2023/04/03 09:17:59;;;;;;;6.47;3.55;;;5.40;91.90;;;;;;5048281;28;20108;-79
2023/04/03 09:20:40;;;;;;;7.22;3.17;;;5.60;91.20;;;;;;5043045;28;20021;-79
2023/04/03 09:23:24;;;;;;;4.25;3.25;;;5.60;90.80;;;;;;5044003;28;20021;-79
2023/04/03 09:25:56;;;;;;;4.60;3.25;;;5.70;90.90;;;;;;5040279;28;20357;-78
2023/04/03 09:28:22;;;;;;;5.13;2.70;;;5.70;90.80;;;;;;5041327;28;20125;-77
2023/04/03 09:30:47;;;;;;;5.43;2.83;;;5.80;91.20;;;;;;5037768;28;20132;-78
2023/04/03 09:33:14;;;;;;;4.68;2.50;;;6.00;90.80;;;;;;5036364;28;20029;-77
2023/04/03 09:35:41;;;;;;;5.70;2.85;;;6.10;90.40;;;;;;5036159;28;20040;-77
2023/04/03 09:38:09;;;;;;;4.35;2.40;;;6.10;90.30;;;;;;5036052;28;20060;-77
2023/04/03 09:40:46;;;;;;;4.97;2.58;;;6.10;90.10;;;;;;5041523;28;20025;-79
2023/04/03 09:43:32;;;;;;;5.13;2.55;;;6.00;89.10;;;;;;5037962;28;20033;-78
2023/04/03 09:46:34;;;;;;;4.28;2.60;;;5.80;88.40;;;;;;5018654;28;20050;-77
2023/04/03 09:49:05;;;;;;;2.88;1.88;;;5.90;90.10;;;;;;5020001;28;20034;-78
2023/04/03 09:51:32;;;;;;;3.75;2.13;;;5.90;90.20;;;;;;5020063;28;20026;-78
2023/04/03 09:53:58;;;;;;;2.55;2.17;;;6.00;90.10;;;;;;5017309;28;20022;-77
2023/04/03 09:56:30;;;;;;;6.65;2.63;;;6.10;90.00;;;;;;5022938;28;20037;-78
2023/04/03 09:58:58;;;;;;;3.30;2.42;;;6.30;89.30;;;;;;5037319;28;20025;-77
2023/04/03 10:01:34;;;;;;;3.05;2.13;;;6.50;87.20;;;;;;5037213;28;20037;-79
2023/04/03 10:04:11;;;;;;;4.57;2.20;;;6.70;86.70;;;;;;5036935;28;20026;-78
2023/04/03 10:06:48;;;;;;;2.40;1.35;;;7.00;85.20;;;;;;5035724;28;20041;-78
2023/04/03 10:09:22;;;;;;;4.57;2.35;;;7.20;84.50;;;;;;5036230;28;20061;-76
2023/04/03 10:12:10;;;;;;;3.97;2.03;;;7.10;81.70;;;;;;5036758;28;20040;-77
2023/04/03 10:15:00;;;;;;;5.78;2.40;;;7.00;82.70;;;;;;5037320;28;20371;-77
2023/04/03 10:17:53;;;;;;;6.13;2.80;;;6.70;82.70;;;;;;5034311;28;20401;-77
2023/04/03 10:20:43;;;;;;;4.28;2.70;;;6.40;82.90;;;;;;5036887;28;20041;-78
2023/04/03 10:23:20;;;;;;;3.95;2.65;;;6.00;84.10;;;;;;5037440;28;20021;-77
2023/04/03 10:26:12;;;;;;;3.33;2.33;;;5.80;85.70;;;;;;5035548;28;20025;-77
2023/04/03 10:29:01;;;;;;;4.67;2.20;;;5.60;86.70;;;;;;5028554;28;20422;-76
2023/04/03 10:31:42;;;;;;;5.13;2.75;;;5.50;87.70;;;;;;5037253;28;20288;-77
2023/04/03 10:34:38;;;;;;;4.25;2.53;;;5.50;88.20;;;;;;5036987;28;20075;-77
2023/04/03 10:37:23;;;;;;;5.07;2.58;;;5.40;88.40;;;;;;5040469;28;20041;-77
2023/04/03 10:39:54;;;;;;;4.93;2.10;;;5.20;88.00;;;;;;5036329;28;20036;-77
2023/04/03 10:42:41;;;;;;;5.13;2.72;;;5.00;87.80;;;;;;5035997;28;20025;-77
2023/04/03 10:45:43;;;;;;;5.53;2.65;;;4.80;89.30;;;;;;5020171;28;20045;-78
2023/04/03 10:48:16;;;;;;;6.70;2.15;;;4.60;90.40;;;;;;5019059;28;20042;-77
2023/04/03 10:50:53;;;;;;;4.78;2.33;;;4.50;91.10;;;;;;5017872;28;20506;-78
2023/04/03 10:53:40;;;;;;;5.25;2.42;;;4.30;92.00;;;;;;5017241;28;20029;-77
2023/04/03 10:56:13;;;;;;;6.05;2.55;;;4.20;92.60;;;;;;5016417;28;20072;-76
2023/04/03 10:58:44;;;;;;;6.72;3.00;;;4.10;93.40;;;;;;5034901;28;20448;-78
2023/04/03 11:01:24;;;;;;;5.90;2.75;;;4.00;94.10;;;;;;5038267;28;20017;-77
2023/04/03 11:03:57;;;;;;;6.85;2.50;;;3.90;94.40;;;;;;5025143;28;20083;-78
2023/04/03 11:06:24;;;;;;;;;;;3.90;95.00;;;;;;5037700;28;20017;-78
2023/04/03 11:09:11;;;;;;;4.03;2.42;;;3.90;94.90;;;;;;5035574;28;19943;-77
2023/04/03 11:11:40;;;;;;;4.10;2.20;;;3.90;95.10;;;;;;5037683;28;20029;-77
2023/04/03 11:14:15;;;;;;;3.85;2.22;;;4.10;95.50;;;;;;5037726;28;20029;-78
2023/04/03 11:16:46;;;;;;;4.75;2.67;;;4.30;95.10;;;;;;5037088;28;20378;-77
2023/04/03 11:19:21;;;;;;;5.18;2.35;;;4.50;94.40;;;;;;5036680;28;20064;-76
2023/04/03 11:22:21;;;;;;;5.35;2.38;;;4.60;93.60;;;;;;5038390;28;20086;-77
2023/04/03 11:25:15;;;;;;;4.30;2.17;;;4.80;92.90;;;;;;5032060;28;20482;-77
2023/04/03 11:27:43;;;;;;;3.95;1.85;;;5.00;92.90;;;;;;5038199;28;20572;-77
2023/04/03 11:30:34;;;;;;;2.70;1.65;;;5.20;92.60;;;;;;5035404;28;20040;-77
2023/04/03 11:33:09;;;;;;;1.92;1.45;;;5.60;92.50;;;;;;5033406;28;20074;-78
2023/04/03 11:35:35;;;;;;;2.42;1.65;;;5.90;91.30;;;;;;5034362;28;20386;-78
2023/04/03 11:38:06;;;;;;;5.22;2.25;;;6.10;90.70;;;;;;5035171;28;20036;-77
2023/04/03 11:40:35;;;;;;;4.22;1.65;;;6.20;86.00;;;;;;5038403;28;20036;-77
2023/04/03 11:43:31;;;;;;;2.45;1.60;;;6.20;84.40;;;;;;5035333;28;20138;-77
2023/04/03 11:46:18;;;;;;;4.07;1.60;;;6.20;83.80;;;;;;5035413;28;20105;-77
2023/04/03 11:48:47;;;;;;;4.60;1.45;;;6.20;84.00;;;;;;5035711;28;20405;-76
2023/04/03 11:51:12;;;;;;;3.08;1.50;;;6.40;84.30;;;;;;5035787;28;20041;-77
2023/04/03 11:53:40;;;;;;;1.63;1.30;;;6.70;84.40;;;;;;5035929;28;20421;-77
2023/04/03 11:56:35;;;;;;;4.05;1.20;;;7.10;84.10;;;;;;5035114;28;20449;-77
2023/04/03 11:59:10;;;;;;;3.17;1.50;;;7.30;81.40;;;;;;5022199;28;20355;-77
2023/04/03 12:01:46;;;;;;;1.63;1.38;;;7.20;76.00;;;;;;5039653;28;20469;-77
2023/04/03 12:04:15;;;;;;;3.22;1.38;;;7.00;76.90;;;;;;5035361;28;20033;-77
2023/04/03 12:06:42;;;;;;;3.88;1.30;;;6.90;75.90;;;;;;5035871;28;20624;-77
2023/04/03 12:09:48;;;;;;;3.85;1.45;;;7.10;76.30;;;;;;5036275;28;20030;-77
2023/04/03 12:12:22;;;;;;;2.95;1.27;;;7.20;73.40;;;;;;5029162;28;20059;-77
2023/04/03 12:14:48;;;;;;;1.65;1.30;;;7.20;72.10;;;;;;5033906;28;20025;-78
2023/04/03 12:17:23;;;;;;;2.60;1.10;;;7.50;72.40;;;;;;5035489;28;20041;-77
2023/04/03 12:19:49;;;;;;;3.50;1.33;;;7.70;71.30;;;;;;5035596;28;20026;-78
2023/04/03 12:22:20;;;;;;;2.35;1.15;;;7.80;69.80;;;;;;5034864;28;20089;-77
2023/04/03 12:24:51;;;;;;;3.20;1.40;;;7.80;68.50;;;;;;5036236;28;20028;-77
2023/04/03 12:27:32;;;;;;;2.13;1.08;;;7.70;67.70;;;;;;5035624;28;20088;-78
2023/04/03 12:30:04;;;;;;;1.80;1.17;;;7.60;67.40;;;;;;5038275;28;20036;-76
2023/04/03 12:32:40;;;;;;;1.17;1.00;;;7.50;67.90;;;;;;5038242;28;20026;-77
2023/04/03 12:35:28;;;;;;;2.20;1.08;;;7.50;67.50;;;;;;5037153;28;20037;-77
2023/04/03 12:38:24;;;;;;;1.63;1.00;;;7.50;66.80;;;;;;5038074;28;20033;-77
2023/04/03 12:41:10;;;;;;;4.03;1.05;;;7.50;65.30;;;;;;5018016;28;20313;-77
2023/04/03 12:44:06;;;;;;;1.08;0.65;;;7.50;65.30;;;;;;5019366;28;20034;-77
2023/04/03 12:46:44;;;;;;;1.63;0.70;;;7.80;65.40;;;;;;5020305;28;20026;-77
2023/04/03 12:49:37;;;;;;;0.88;0.60;;;8.10;65.00;;;;;;5019493;28;20037;-77
2023/04/03 12:52:24;;;;;;;2.65;1.10;;;8.40;64.00;;;;;;5020809;28;20028;-78
2023/04/03 12:54:51;;;;;;;1.75;0.90;;;8.30;62.40;;;;;;5018839;28;20030;-77
2023/04/03 12:57:21;;;;;;;4.43;1.30;;;8.10;63.00;;;;;;5038185;28;20375;-77
2023/04/03 12:59:47;;;;;;;2.25;1.20;;;8.00;59.70;;;;;;5038141;28;20067;-76
2023/04/03 13:02:37;;;;;;;4.63;1.42;;;7.70;60.80;;;;;;5038392;28;20033;-77
2023/04/03 13:05:13;;;;;;;1.60;1.10;;;7.50;62.10;;;;;;5039398;28;20101;-77
2023/04/03 13:07:40;;;;;;;2.42;1.27;;;7.30;63.10;;;;;;5041393;28;20107;-78
2023/04/03 13:10:09;;;;;;;1.17;0.98;;;7.20;64.10;;;;;;5040079;28;20045;-77
2023/04/03 13:12:45;;;;;;;2.60;1.10;;;7.30;64.80;;;;;;5037908;28;20021;-78
2023/04/03 13:15:19;;;;;;;2.03;0.90;;;7.40;62.10;;;;;;5040471;28;20117;-77